Time;durP1;ratioP1;P1;durP2;ratioP2;P2;SDS_P1;SDS_P2;PMS_P1;PMS_P2;Temp;Humidity;BMP_temperature;BMP_pressure;BME280_temperature;BME280_humidity;BME280_pressure;Samples;Min_cycle;Max_cycle;Signal;HPM_P1;HPM_P2
2022/12/17 13:07:25;;;;;;;74.93;28.00;;;;;;;0.57;100.00;102545.41;2614358;36;20026;-64
2022/12/17 13:09:56;;;;;;;65.80;25.40;;;;;;;0.60;100.00;102546.19;2615111;36;20042;-61
2022/12/17 13:12:29;;;;;;;73.95;26.85;;;;;;;0.65;100.00;102554.94;2614565;36;20023;-64
2022/12/17 13:15:11;;;;;;;79.05;27.80;;;;;;;0.54;100.00;102541.03;2613613;36;20103;-60
2022/12/17 13:17:42;;;;;;;73.85;27.45;;;;;;;0.59;100.00;102538.28;2614061;31;20122;-60
2022/12/17 13:20:31;;;;;;;77.30;27.00;;;;;;;0.66;100.00;102546.09;2615021;36;20551;-59
2022/12/17 13:23:31;;;;;;;70.35;27.92;;;;;;;0.61;100.00;102541.81;2615648;36;20037;-64
2022/12/17 13:26:16;;;;;;;69.47;28.15;;;;;;;0.53;100.00;102539.31;2615229;36;20057;-64
2022/12/17 13:28:49;;;;;;;69.32;27.20;;;;;;;0.58;100.00;102540.06;2615092;31;20031;-62
2022/12/17 13:31:21;;;;;;;70.32;27.92;;;;;;;0.47;100.00;102545.59;2614701;36;20037;-61
2022/12/17 13:33:55;;;;;;;73.22;27.25;;;;;;;0.43;100.00;102532.44;2611205;36;20037;-63
2022/12/17 13:36:33;;;;;;;65.80;26.92;;;;;;;0.16;100.00;102532.03;2613817;36;20038;-63
2022/12/17 13:39:08;;;;;;;72.75;28.08;;;;;;;0.09;100.00;102535.69;2614295;36;20038;-61
2022/12/17 13:41:37;;;;;;;63.45;26.30;;;;;;;0.08;100.00;102541.91;2614930;31;20041;-64
2022/12/17 13:44:20;;;;;;;76.88;27.10;;;;;;;0.15;100.00;102532.94;2612702;36;20046;-61
2022/12/17 13:46:50;;;;;;;80.30;28.85;;;;;;;0.06;100.00;102527.78;2616356;31;20191;-64
2022/12/17 13:49:21;;;;;;;72.30;26.90;;;;;;;0.15;100.00;102530.31;2616066;36;20038;-60
2022/12/17 13:52:02;;;;;;;70.93;27.08;;;;;;;-0.02;100.00;102536.75;2615951;36;20036;-64
2022/12/17 13:54:31;;;;;;;79.78;30.80;;;;;;;0.17;100.00;102531.13;2615817;36;20038;-62
2022/12/17 13:57:09;;;;;;;83.05;28.90;;;;;;;0.07;100.00;102524.25;2615418;36;20055;-62
2022/12/17 13:59:38;;;;;;;80.63;29.70;;;;;;;0.02;100.00;102519.06;2581203;36;20563;-61
2022/12/17 14:02:06;;;;;;;79.22;29.00;;;;;;;0.02;100.00;102534.94;2615680;36;20428;-61
2022/12/17 14:04:35;;;;;;;80.23;30.60;;;;;;;-0.06;100.00;102529.78;2608545;36;20030;-63
2022/12/17 14:07:07;;;;;;;71.47;28.08;;;;;;;-0.12;100.00;102529.84;2615567;36;20291;-62
2022/12/17 14:09:40;;;;;;;86.78;29.33;;;;;;;-0.15;100.00;102534.34;2615192;31;20030;-65
2022/12/17 14:12:25;;;;;;;68.30;26.88;;;;;;;-0.16;100.00;102528.19;2614936;36;20030;-64
2022/12/17 14:14:56;;;;;;;86.13;31.65;;;;;;;-0.19;100.00;102542.34;2615477;36;20042;-64
2022/12/17 14:17:27;;;;;;;89.85;32.55;;;;;;;-0.17;100.00;102539.66;2614962;36;20083;-62
2022/12/17 14:20:00;;;;;;;78.72;28.92;;;;;;;-0.24;100.00;102540.66;2613955;36;20045;-61
2022/12/17 14:22:36;;;;;;;79.28;28.98;;;;;;;-0.30;100.00;102530.19;2585387;36;20128;-65
2022/12/17 14:25:08;;;;;;;82.45;30.27;;;;;;;-0.25;100.00;102534.50;2615732;31;20026;-63
2022/12/17 14:27:37;;;;;;;82.18;29.65;;;;;;;-0.32;100.00;102538.16;2614817;36;20170;-62
2022/12/17 14:30:22;;;;;;;78.95;28.38;;;;;;;-0.46;100.00;102535.69;2616098;31;20054;-63
2022/12/17 14:32:52;;;;;;;79.85;30.13;;;;;;;-0.39;100.00;102552.38;2613979;36;20023;-60
2022/12/17 14:35:28;;;;;;;81.60;29.35;;;;;;;-0.40;100.00;102561.19;2613800;36;20971;-64
2022/12/17 14:37:59;;;;;;;85.18;29.85;;;;;;;-0.42;100.00;102558.56;2616019;36;20431;-64
2022/12/17 14:40:28;;;;;;;78.55;28.73;;;;;;;-0.36;100.00;102560.25;2615402;36;20551;-63
2022/12/17 14:43:01;;;;;;;82.75;30.35;;;;;;;-0.34;100.00;102561.09;2614791;36;20462;-62
2022/12/17 14:45:30;;;;;;;88.38;31.52;;;;;;;-0.28;100.00;102561.03;2613830;36;20042;-62
2022/12/17 14:48:03;;;;;;;92.22;32.42;;;;;;;-0.45;100.00;102558.63;2614959;31;20035;-61
2022/12/17 14:50:34;;;;;;;86.13;29.52;;;;;;;-0.60;100.00;102564.16;2616404;36;20687;-62
2022/12/17 14:53:24;;;;;;;82.40;30.85;;;;;;;-0.62;100.00;102571.22;2615259;36;20567;-61
2022/12/17 14:55:56;;;;;;;84.38;29.77;;;;;;;-0.52;100.00;102583.41;2615119;36;20034;-63
2022/12/17 14:58:25;;;;;;;78.53;30.80;;;;;;;-0.52;100.00;102582.53;2614650;36;20045;-62
2022/12/17 15:00:59;;;;;;;80.35;29.00;;;;;;;-0.64;100.00;102578.31;2614592;36;20038;-66
2022/12/17 15:03:29;;;;;;;81.25;29.25;;;;;;;-0.69;100.00;102582.75;2614431;36;20030;-64
2022/12/17 15:06:01;;;;;;;77.05;30.30;;;;;;;-0.69;100.00;102588.94;2615645;36;20027;-64
2022/12/17 15:08:35;;;;;;;78.95;28.40;;;;;;;-0.74;100.00;102581.09;2614877;36;20089;-64
2022/12/17 15:11:04;;;;;;;79.53;29.10;;;;;;;-0.76;100.00;102582.00;2615101;36;20030;-63
2022/12/17 15:13:33;;;;;;;77.97;28.85;;;;;;;-0.64;100.00;102584.47;2615638;36;20040;-63
2022/12/17 15:16:01;;;;;;;91.70;31.80;;;;;;;-0.68;100.00;102581.88;2616015;36;20030;-62
2022/12/17 15:18:30;;;;;;;81.88;29.85;;;;;;;-0.74;100.00;102590.75;2614166;36;20283;-61
2022/12/17 15:20:58;;;;;;;86.17;30.43;;;;;;;-0.85;100.00;102590.91;2616300;36;20065;-60
2022/12/17 15:23:27;;;;;;;85.45;30.15;;;;;;;-0.75;100.00;102597.84;2615818;36;20461;-63
2022/12/17 15:25:58;;;;;;;94.43;32.08;;;;;;;-0.77;100.00;102604.03;2610044;36;20046;-62
2022/12/17 15:28:26;;;;;;;82.32;29.95;;;;;;;-0.89;100.00;102602.41;2612618;36;20038;-63
2022/12/17 15:30:55;;;;;;;83.35;30.08;;;;;;;-0.92;100.00;102602.47;2615019;36;20037;-63
2022/12/17 15:33:23;;;;;;;84.38;30.98;;;;;;;-0.88;100.00;102604.19;2614122;36;20034;-64
2022/12/17 15:35:51;;;;;;;79.95;29.08;;;;;;;-0.83;100.00;102594.41;2615741;36;20023;-64
2022/12/17 15:38:21;;;;;;;81.75;29.92;;;;;;;-0.77;100.00;102602.25;2615899;36;20038;-62
2022/12/17 15:40:50;;;;;;;80.00;29.33;;;;;;;-0.86;100.00;102605.03;2613789;36;20030;-63
2022/12/17 15:43:18;;;;;;;85.05;30.38;;;;;;;-0.91;100.00;102614.78;2614605;36;20034;-63
2022/12/17 15:45:49;;;;;;;88.35;31.90;;;;;;;-0.86;100.00;102614.72;2614335;36;20034;-62
2022/12/17 15:48:18;;;;;;;89.57;30.30;;;;;;;-0.91;100.00;102623.59;2611572;36;20645;-63
2022/12/17 15:50:47;;;;;;;85.97;33.00;;;;;;;-0.94;100.00;102625.41;2614958;31;20030;-62
2022/12/17 15:53:16;;;;;;;82.43;29.53;;;;;;;-1.02;100.00;102627.25;2616074;36;20042;-64
2022/12/17 15:55:44;;;;;;;87.78;29.95;;;;;;;-1.03;100.00;102629.03;2615371;36;20030;-63
2022/12/17 15:58:15;;;;;;;88.45;30.15;;;;;;;-1.10;100.00;102638.78;2614319;36;20034;-62
2022/12/17 16:00:45;;;;;;;91.57;31.85;;;;;;;-1.10;100.00;102632.63;2615559;36;20035;-62
2022/12/17 16:03:14;;;;;;;88.90;30.25;;;;;;;-1.10;100.00;102627.34;2615304;36;20053;-63
2022/12/17 16:05:42;;;;;;;87.40;29.10;;;;;;;-1.07;100.00;102625.53;2616089;36;20035;-64
2022/12/17 16:08:10;;;;;;;93.60;30.58;;;;;;;-1.12;100.00;102629.13;2615079;36;20578;-63
2022/12/17 16:10:39;;;;;;;81.80;29.65;;;;;;;-1.03;100.00;102636.97;2615570;36;20031;-66
2022/12/17 16:13:07;;;;;;;98.07;32.30;;;;;;;-1.20;100.00;102638.91;2615366;36;20030;-64
2022/12/17 16:15:36;;;;;;;85.80;32.05;;;;;;;-1.09;100.00;102642.28;2615896;36;20535;-64
2022/12/17 16:18:07;;;;;;;91.72;33.03;;;;;;;-1.14;100.00;102647.63;2614360;36;20045;-61
2022/12/17 16:20:35;;;;;;;91.75;29.98;;;;;;;-0.94;100.00;102635.97;2615744;36;20022;-62
2022/12/17 16:23:03;;;;;;;92.95;32.75;;;;;;;-1.00;100.00;102633.38;2615815;36;20026;-63
2022/12/17 16:25:32;;;;;;;83.63;29.30;;;;;;;-0.84;100.00;102645.56;2615691;36;20034;-65
2022/12/17 16:28:00;;;;;;;89.45;32.15;;;;;;;-0.90;100.00;102635.91;2615563;36;20031;-64
2022/12/17 16:30:28;;;;;;;90.50;29.67;;;;;;;-0.97;100.00;102638.63;2615688;36;20035;-65
2022/12/17 16:32:59;;;;;;;88.13;31.38;;;;;;;-0.91;100.00;102630.66;2615517;36;20034;-63
2022/12/17 16:35:30;;;;;;;98.45;33.17;;;;;;;-0.80;100.00;102634.03;2615658;36;20031;-64
2022/12/17 16:37:58;;;;;;;94.28;32.33;;;;;;;-0.89;100.00;102636.78;2613273;36;20050;-65
2022/12/17 16:40:27;;;;;;;91.93;30.58;;;;;;;-0.83;100.00;102635.84;2614694;36;20567;-64
2022/12/17 16:42:57;;;;;;;88.10;31.55;;;;;;;-0.91;100.00;102634.16;2615240;36;20034;-65
2022/12/17 16:45:25;;;;;;;;;;;;;;;-1.11;100.00;102642.31;2614067;36;20041;-65
2022/12/17 16:47:53;;;;;;;85.53;32.15;;;;;;;-0.97;100.00;102650.09;2611161;36;19958;-63
2022/12/17 16:50:22;;;;;;;90.47;32.35;;;;;;;-0.97;100.00;102649.19;2614192;31;20582;-61
2022/12/17 16:52:53;;;;;;;96.82;34.08;;;;;;;-1.00;100.00;102657.16;2611919;36;20582;-63
2022/12/17 16:55:21;;;;;;;96.38;32.40;;;;;;;-1.01;100.00;102647.50;2612793;36;20084;-64
2022/12/17 16:57:49;;;;;;;91.38;32.67;;;;;;;-1.09;100.00;102648.47;2598384;36;20041;-64
2022/12/17 17:00:18;;;;;;;90.57;31.88;;;;;;;-1.00;100.00;102646.59;2615204;36;20523;-62
2022/12/17 17:02:47;;;;;;;86.22;31.15;;;;;;;-1.03;100.00;102641.34;2614802;36;20045;-63
2022/12/17 17:05:15;;;;;;;84.00;29.92;;;;;;;-1.03;100.00;102649.28;2615137;36;20026;-62
2022/12/17 17:07:43;;;;;;;95.33;32.00;;;;;;;-0.99;100.00;102651.00;2614513;36;20821;-64
2022/12/17 17:10:15;;;;;;;87.57;31.90;;;;;;;-0.93;100.00;102656.22;2614467;31;20026;-62
2022/12/17 17:12:43;;;;;;;88.47;31.65;;;;;;;-0.97;100.00;102659.78;2615298;36;20153;-63
2022/12/17 17:15:12;;;;;;;106.70;38.25;;;;;;;-0.99;100.00;102659.78;2615304;36;20045;-62
2022/12/17 17:17:40;;;;;;;84.45;29.13;;;;;;;-1.17;100.00;102654.72;2614775;36;20037;-61
2022/12/17 17:20:10;;;;;;;91.50;32.30;;;;;;;-1.12;100.00;102659.06;2614718;36;20034;-64
2022/12/17 17:22:38;;;;;;;86.18;30.17;;;;;;;-1.16;100.00;102649.41;2616080;31;20070;-64
2022/12/17 17:25:07;;;;;;;81.20;29.98;;;;;;;-1.15;100.00;102656.47;2613877;36;20031;-62
2022/12/17 17:27:38;;;;;;;83.35;29.55;;;;;;;-1.01;100.00;102658.09;2614483;36;20045;-62
2022/12/17 17:30:08;;;;;;;86.03;28.63;;;;;;;-1.19;100.00;102660.03;2615008;36;20034;-63
2022/12/17 17:32:36;;;;;;;91.88;29.25;;;;;;;-1.12;100.00;102647.59;2614916;36;20038;-63
2022/12/17 17:35:04;;;;;;;88.30;28.20;;;;;;;-1.31;100.00;102650.47;2614684;36;20034;-64
2022/12/17 17:37:33;;;;;;;88.27;28.90;;;;;;;-1.35;100.00;102659.31;2609819;36;20041;-63
2022/12/17 17:40:01;;;;;;;74.28;26.67;;;;;;;-1.15;100.00;102664.41;2613457;36;20035;-63
2022/12/17 17:42:30;;;;;;;81.28;27.30;;;;;;;-1.18;100.00;102658.25;2614065;36;20069;-62
2022/12/17 17:45:02;;;;;;;91.85;30.77;;;;;;;-1.29;100.00;102655.72;2614043;36;20034;-64
2022/12/17 17:47:30;;;;;;;84.78;27.65;;;;;;;-1.18;100.00;102661.75;2613496;36;20061;-62
2022/12/17 17:49:59;;;;;;;88.18;28.60;;;;;;;-1.21;100.00;102661.78;2614088;36;20062;-63
2022/12/17 17:52:27;;;;;;;87.50;30.33;;;;;;;-1.35;100.00;102663.72;2614371;36;20057;-64
2022/12/17 17:55:01;;;;;;;82.78;26.48;;;;;;;-1.25;100.00;102665.38;2615080;39;20409;-61
2022/12/17 17:57:29;;;;;;;87.57;29.55;;;;;;;-1.42;100.00;102674.31;2607155;36;20489;-61
2022/12/17 18:00:01;;;;;;;77.30;26.80;;;;;;;-1.43;100.00;102669.94;2614248;36;20049;-61
2022/12/17 18:02:29;;;;;;;78.80;26.92;;;;;;;-1.45;100.00;102678.78;2613416;36;20026;-60
2022/12/17 18:04:58;;;;;;;77.68;26.75;;;;;;;-1.36;100.00;102669.88;2613510;36;20034;-63
2022/12/17 18:07:26;;;;;;;74.28;24.63;;;;;;;-1.50;100.00;102670.88;2615038;36;20031;-60
2022/12/17 18:09:54;;;;;;;92.70;28.67;;;;;;;-1.52;100.00;102669.16;2614226;36;20039;-61
2022/12/17 18:15:08;;;;;;;78.50;27.20;;;;;;;-1.46;100.00;102682.28;2610675;36;20031;-60
2022/12/17 18:17:36;;;;;;;85.03;29.40;;;;;;;-1.56;100.00;102684.16;2614739;36;20475;-60
2022/12/17 18:20:05;;;;;;;79.55;27.58;;;;;;;-1.59;100.00;102682.41;2613736;36;20041;-61
2022/12/17 18:22:34;;;;;;;83.53;29.60;;;;;;;-1.67;100.00;102691.28;2614449;36;20038;-60
2022/12/17 18:25:02;;;;;;;80.95;26.45;;;;;;;-1.56;100.00;102692.06;2610409;36;20030;-61
2022/12/17 18:27:31;;;;;;;86.65;29.38;;;;;;;-1.59;100.00;102692.06;2614364;31;20448;-60
2022/12/17 18:29:59;;;;;;;89.55;29.25;;;;;;;-1.39;100.00;102688.41;2611363;36;20085;-60
2022/12/17 18:32:30;;;;;;;85.78;28.77;;;;;;;-1.54;100.00;102685.00;2614975;36;20034;-60
2022/12/17 18:34:58;;;;;;;88.32;30.75;;;;;;;-1.52;100.00;102687.63;2615416;36;20030;-62
2022/12/17 18:37:27;;;;;;;93.93;31.42;;;;;;;-1.61;100.00;102688.59;2615972;36;20023;-61
2022/12/17 18:39:55;;;;;;;92.30;31.00;;;;;;;-1.45;100.00;102689.34;2614148;36;20050;-61
2022/12/17 18:45:04;;;;;;;96.38;30.00;;;;;;;-1.45;100.00;102687.56;2615634;36;20078;-61
2022/12/17 18:47:35;;;;;;;96.35;33.13;;;;;;;-1.51;100.00;102690.25;2614671;36;20661;-61
2022/12/17 18:50:03;;;;;;;83.25;29.02;;;;;;;-1.56;100.00;102688.53;2615143;36;20057;-61
2022/12/17 18:52:32;;;;;;;83.80;28.50;;;;;;;-1.53;100.00;102686.75;2615435;36;20034;-62
2022/12/17 18:55:01;;;;;;;80.88;28.45;;;;;;;-1.69;100.00;102695.69;2614180;36;20023;-62
2022/12/17 18:57:30;;;;;;;92.60;27.60;;;;;;;-1.61;100.00;102693.88;2615019;36;20420;-61
2022/12/17 18:59:58;;;;;;;79.05;26.75;;;;;;;-1.69;100.00;102690.41;2614553;36;20039;-61
2022/12/17 19:02:26;;;;;;;89.13;28.42;;;;;;;-1.74;100.00;102692.22;2614331;36;20027;-61
2022/12/17 19:04:57;;;;;;;85.80;28.30;;;;;;;-1.71;100.00;102692.19;2614574;36;20035;-61
2022/12/17 19:07:26;;;;;;;80.50;28.42;;;;;;;-1.73;100.00;102693.97;2615769;36;20043;-61
2022/12/17 19:09:54;;;;;;;88.60;28.65;;;;;;;-1.54;100.00;102700.00;2614203;36;20634;-62
2022/12/17 19:12:23;;;;;;;80.37;28.27;;;;;;;-1.59;100.00;102702.63;2614869;36;20026;-61
2022/12/17 19:14:51;;;;;;;82.38;28.55;;;;;;;-1.56;100.00;102702.63;2615145;36;20031;-61
2022/12/17 19:17:19;;;;;;;82.57;29.33;;;;;;;-1.80;100.00;102704.56;2615654;36;20046;-63
2022/12/17 19:19:48;;;;;;;90.70;29.10;;;;;;;-1.84;100.00;102717.78;2615306;36;20029;-60
2022/12/17 19:22:19;;;;;;;83.57;29.45;;;;;;;-1.82;100.00;102722.19;2614972;31;20138;-61
2022/12/17 19:24:48;;;;;;;78.93;28.77;;;;;;;-1.80;100.00;102715.09;2613903;36;20604;-60
2022/12/17 19:27:16;;;;;;;79.93;28.92;;;;;;;-1.83;100.00;102715.13;2613671;36;20031;-61
2022/12/17 19:29:44;;;;;;;86.88;29.95;;;;;;;-1.84;100.00;102715.16;2607628;31;20035;-61
2022/12/17 19:32:13;;;;;;;81.47;28.90;;;;;;;-1.78;100.00;102717.78;2615260;31;20540;-61
2022/12/17 19:34:41;;;;;;;76.90;27.13;;;;;;;-1.80;100.00;102715.09;2614752;36;20423;-60
2022/12/17 19:37:11;;;;;;;91.15;30.85;;;;;;;-1.74;100.00;102713.34;2615712;36;20335;-61
2022/12/17 19:39:42;;;;;;;84.88;30.00;;;;;;;-1.78;100.00;102716.00;2615132;36;20539;-61
2022/12/17 19:42:23;;;;;;;88.95;30.88;;;;;;;-1.80;100.00;102715.09;2615352;36;20034;-60
2022/12/17 19:44:51;;;;;;;82.97;29.65;;;;;;;-1.86;100.00;102706.38;2615652;36;20034;-60
2022/12/17 19:47:20;;;;;;;87.22;30.55;;;;;;;-1.65;100.00;102707.97;2615350;36;20134;-61
2022/12/17 19:49:48;;;;;;;91.75;30.15;;;;;;;-1.66;100.00;102706.25;2614167;36;20034;-60
2022/12/17 19:52:17;;;;;;;86.35;30.73;;;;;;;-1.69;100.00;102707.13;2614579;31;20423;-61
2022/12/17 19:54:47;;;;;;;88.13;30.42;;;;;;;-1.78;100.00;102713.34;2614847;36;20043;-61
2022/12/17 19:57:16;;;;;;;86.68;29.70;;;;;;;-1.73;100.00;102715.09;2614418;36;20031;-61
2022/12/17 19:59:44;;;;;;;90.15;33.22;;;;;;;-1.69;100.00;102714.16;2615349;36;20030;-62
2022/12/17 20:02:14;;;;;;;90.85;31.33;;;;;;;-1.67;100.00;102717.69;2615067;36;20401;-61
2022/12/17 20:04:42;;;;;;;90.68;31.58;;;;;;;-1.67;100.00;102721.19;2614586;36;20069;-62
2022/12/17 20:07:10;;;;;;;96.22;32.88;;;;;;;-1.77;100.00;102720.41;2614139;36;20034;-62
2022/12/17 20:09:39;;;;;;;90.97;32.13;;;;;;;-1.68;100.00;102729.13;2614937;31;20041;-61
2022/12/17 20:12:10;;;;;;;79.15;30.25;;;;;;;-1.68;100.00;102730.00;2612848;36;20408;-62
2022/12/17 20:14:38;;;;;;;91.65;31.17;;;;;;;-1.94;100.00;102733.69;2611332;36;20034;-61
2022/12/17 20:17:07;;;;;;;104.32;32.85;;;;;;;-1.73;100.00;102736.22;2614258;36;20149;-61
2022/12/17 20:19:36;;;;;;;91.78;31.75;;;;;;;-1.69;100.00;102737.91;2614802;36;20438;-61
2022/12/17 20:22:06;;;;;;;84.97;31.33;;;;;;;-1.81;100.00;102733.59;2614225;31;20876;-61
2022/12/17 20:24:36;;;;;;;84.70;32.50;;;;;;;-1.76;100.00;102732.69;2613165;36;20801;-61
2022/12/17 20:27:04;;;;;;;;;;;;;;;-1.79;100.00;102738.00;2613456;31;20034;-62
2022/12/17 20:29:35;;;;;;;86.17;32.80;;;;;;;-1.81;100.00;102729.22;2614445;36;19977;-61
2022/12/17 20:32:04;;;;;;;95.68;33.33;;;;;;;-1.93;100.00;102734.56;2613154;36;20077;-62
2022/12/17 20:34:32;;;;;;;90.47;34.05;;;;;;;-1.96;100.00;102734.56;2614161;31;20034;-62
2022/12/17 20:37:01;;;;;;;94.57;34.63;;;;;;;-1.88;100.00;102745.97;2613743;36;21561;-61
2022/12/17 20:39:30;;;;;;;93.18;32.15;;;;;;;-1.82;100.00;102751.22;2614712;31;20030;-62
2022/12/17 20:41:59;;;;;;;94.38;34.67;;;;;;;-2.05;100.00;102758.38;2614408;36;20077;-62
2022/12/17 20:44:27;;;;;;;95.30;33.83;;;;;;;-1.89;100.00;102765.31;2614263;36;20050;-61
2022/12/17 20:47:00;;;;;;;89.87;30.87;;;;;;;-1.78;100.00;102766.16;2613553;36;20467;-61
2022/12/17 20:49:28;;;;;;;90.88;31.45;;;;;;;-1.83;100.00;102773.19;2613571;36;20034;-61
2022/12/17 20:51:56;;;;;;;98.07;31.88;;;;;;;-1.94;100.00;102775.03;2614436;36;20038;-61
2022/12/17 20:54:25;;;;;;;88.85;29.65;;;;;;;-1.97;100.00;102777.69;2613350;36;20443;-60
2022/12/17 20:56:53;;;;;;;92.47;30.73;;;;;;;-1.92;100.00;102778.53;2614553;31;20038;-62
2022/12/17 20:59:23;;;;;;;101.68;31.45;;;;;;;-1.92;100.00;102786.47;2613727;36;20111;-62
2022/12/17 21:01:51;;;;;;;91.68;32.13;;;;;;;-2.03;100.00;102775.97;2613351;36;20035;-61
2022/12/17 21:04:22;;;;;;;84.97;31.80;;;;;;;-1.85;100.00;102753.88;2614333;31;20550;-61
2022/12/17 21:06:51;;;;;;;85.00;29.45;;;;;;;-1.96;100.00;102758.31;2613120;36;20038;-62
2022/12/17 21:09:21;;;;;;;88.32;30.75;;;;;;;-2.05;100.00;102761.03;2603925;36;20038;-61
2022/12/17 21:11:49;;;;;;;87.25;30.50;;;;;;;-2.09;100.00;102754.00;2614593;36;20065;-61
2022/12/17 21:14:19;;;;;;;78.97;30.05;;;;;;;-2.09;100.00;102759.28;2614309;36;20041;-61
2022/12/17 21:16:48;;;;;;;89.05;30.70;;;;;;;-2.25;100.00;102754.09;2613152;36;20201;-60
2022/12/17 21:19:19;;;;;;;92.70;31.52;;;;;;;-2.31;100.00;102760.25;2612603;36;20038;-61
2022/12/17 21:21:50;;;;;;;105.50;34.17;;;;;;;-2.20;100.00;102760.22;2613907;36;20057;-61
2022/12/17 21:24:19;;;;;;;101.57;32.75;;;;;;;-2.25;100.00;102758.47;2613448;31;20409;-61
2022/12/17 21:26:48;;;;;;;93.05;32.00;;;;;;;-2.14;100.00;102768.09;2614832;36;20046;-60
2022/12/17 21:29:17;;;;;;;86.32;29.88;;;;;;;-2.19;100.00;102748.78;2632034;36;20567;-61
2022/12/17 21:31:47;;;;;;;97.65;31.17;;;;;;;-2.25;100.00;102758.47;2612864;36;20101;-60
2022/12/17 21:34:20;;;;;;;90.45;31.50;;;;;;;-2.23;100.00;102762.88;2614295;31;20031;-61
2022/12/17 21:36:52;;;;;;;104.15;32.50;;;;;;;-2.26;100.00;102754.97;2614850;36;20601;-61
2022/12/17 21:39:21;;;;;;;95.78;32.65;;;;;;;-2.49;100.00;102761.22;2614127;36;20385;-61
2022/12/17 21:44:31;;;;;;;92.72;31.10;;;;;;;-2.27;100.00;102776.94;2613871;36;20035;-62
2022/12/17 21:46:59;;;;;;;86.60;30.57;;;;;;;-2.33;100.00;102782.25;2615446;36;20034;-61
2022/12/17 21:49:27;;;;;;;90.47;32.95;;;;;;;-2.54;100.00;102781.44;2614675;36;20034;-62
2022/12/17 21:51:59;;;;;;;88.80;31.25;;;;;;;-2.56;100.00;102777.94;2614445;36;20044;-60
2022/12/17 21:54:28;;;;;;;88.40;30.48;;;;;;;-2.40;100.00;102786.69;2614451;36;20034;-60
2022/12/17 21:56:56;;;;;;;91.73;30.83;;;;;;;-2.57;100.00;102792.00;2614338;36;20034;-63
2022/12/17 21:59:24;;;;;;;87.22;29.17;;;;;;;-2.61;100.00;102792.88;2615147;31;20330;-63
2022/12/17 22:01:55;;;;;;;94.75;30.75;;;;;;;-2.67;100.00;102792.91;2615589;36;20027;-65
2022/12/17 22:04:24;;;;;;;86.03;30.67;;;;;;;-2.48;100.00;102797.22;2615692;36;20047;-61
2022/12/17 22:06:52;;;;;;;89.15;31.27;;;;;;;-2.56;100.00;102806.94;2614497;36;20061;-63
2022/12/17 22:09:23;;;;;;;93.78;29.88;;;;;;;-2.55;100.00;102811.31;2614369;36;20035;-61
2022/12/17 22:14:01;;;;;;;96.78;31.63;;;;;;;-2.49;100.00;102819.22;2613773;36;20030;-62
2022/12/17 22:14:38;;;;;;;92.90;33.92;;;;;;;-2.43;100.00;102812.16;2613145;36;20065;-61
2022/12/17 22:17:08;;;;;;;87.75;29.30;;;;;;;-2.37;100.00;102812.13;2615028;36;20452;-61
2022/12/17 22:19:36;;;;;;;86.93;31.77;;;;;;;-2.56;100.00;102812.22;2614584;36;20106;-61
2022/12/17 22:22:05;;;;;;;99.93;32.97;;;;;;;-2.60;100.00;102815.72;2614887;36;20030;-60
2022/12/17 22:24:36;;;;;;;93.00;33.55;;;;;;;-2.42;100.00;102819.19;2614697;31;20042;-61
2022/12/17 22:27:04;;;;;;;111.00;34.38;;;;;;;-2.42;100.00;102808.66;2614679;36;20030;-61
2022/12/17 22:34:54;;;;;;;100.57;32.60;;;;;;;-2.56;100.00;102808.69;2614301;36;20038;-61
2022/12/17 22:37:22;;;;;;;89.72;31.48;;;;;;;-2.60;100.00;102799.91;2614295;36;20041;-61
2022/12/17 22:39:53;;;;;;;91.15;30.48;;;;;;;-2.62;100.00;102801.69;2608441;36;20436;-65
2022/12/17 22:45:02;;;;;;;94.03;32.28;;;;;;;-2.64;100.00;102816.59;2614305;36;20035;-63
2022/12/17 22:47:31;;;;;;;93.47;34.20;;;;;;;-2.73;100.00;102806.97;2615077;36;20042;-63
2022/12/17 22:49:59;;;;;;;88.75;29.90;;;;;;;-2.58;100.00;102808.69;2615063;31;20037;-66
2022/12/17 22:52:27;;;;;;;100.07;33.28;;;;;;;-2.62;100.00;102800.78;2615136;36;20034;-67
2022/12/17 22:54:58;;;;;;;103.90;33.65;;;;;;;-2.72;100.00;102802.59;2614673;36;20022;-63
2022/12/17 22:57:27;;;;;;;89.88;29.27;;;;;;;-2.83;100.00;102797.31;2616033;36;20034;-65
2022/12/17 22:59:58;;;;;;;83.65;29.23;;;;;;;-2.86;100.00;102792.91;2614794;47;20034;-63
2022/12/17 23:02:26;;;;;;;106.57;32.28;;;;;;;-2.86;100.00;102798.19;2613069;36;20034;-65
2022/12/17 23:04:55;;;;;;;88.82;30.25;;;;;;;-2.80;100.00;102796.44;2614135;36;20042;-64
2022/12/17 23:07:23;;;;;;;88.22;30.02;;;;;;;-2.62;100.00;102812.22;2613372;36;20042;-62
2022/12/17 23:09:52;;;;;;;88.22;29.55;;;;;;;-2.83;100.00;102811.38;2612783;36;20057;-64
2022/12/17 23:15:03;;;;;;;79.20;28.95;;;;;;;-2.69;100.00;102821.03;2614121;36;20053;-62
2022/12/17 23:17:32;;;;;;;70.47;25.17;;;;;;;-2.80;100.00;102814.88;2614044;36;20034;-64
2022/12/17 23:20:00;;;;;;;84.20;27.67;;;;;;;-2.80;100.00;102812.25;2615658;36;20038;-61
2022/12/17 23:22:28;;;;;;;91.38;29.73;;;;;;;-2.86;100.00;102821.91;2615234;36;20039;-62
2022/12/17 23:24:57;;;;;;;83.28;27.40;;;;;;;-2.91;100.00;102822.81;2614998;36;20030;-64
2022/12/17 23:27:28;;;;;;;85.75;28.95;;;;;;;-2.90;100.00;102825.44;2615572;36;20404;-62
2022/12/17 23:29:56;;;;;;;69.90;26.45;;;;;;;-3.02;100.00;102821.06;2615386;36;20027;-65
2022/12/17 23:32:27;;;;;;;88.85;28.35;;;;;;;-3.01;100.00;102835.09;2613538;36;20581;-63
2022/12/17 23:34:55;;;;;;;70.88;26.92;;;;;;;-3.04;100.00;102840.38;2615516;31;20577;-63
2022/12/17 23:37:23;;;;;;;76.88;27.08;;;;;;;-3.10;100.00;102832.47;2615164;36;20031;-61
2022/12/17 23:39:52;;;;;;;92.90;26.70;;;;;;;-3.06;100.00;102836.84;2614684;31;20030;-65
2022/12/17 23:42:20;;;;;;;75.65;24.83;;;;;;;-3.11;100.00;102833.34;2614137;36;20038;-63
2022/12/17 23:44:51;;;;;;;80.10;28.40;;;;;;;-3.14;100.00;102836.84;2614893;36;20026;-62
2022/12/17 23:47:19;;;;;;;82.55;28.48;;;;;;;-3.20;100.00;102828.94;2615015;36;20026;-64
2022/12/17 23:49:48;;;;;;;82.32;26.55;;;;;;;-3.31;100.00;102823.69;2614151;36;20027;-65
2022/12/17 23:52:16;;;;;;;66.68;24.05;;;;;;;-3.38;100.00;102819.28;2615147;31;20041;-63
2022/12/17 23:54:44;;;;;;;81.28;26.50;;;;;;;-3.33;100.00;102811.38;2614779;36;20452;-65
2022/12/17 23:57:13;;;;;;;80.78;27.27;;;;;;;-3.48;100.00;102807.84;2614802;36;20034;-63
2022/12/17 23:59:41;;;;;;;76.15;25.55;;;;;;;-3.46;100.00;102805.22;2615103;36;20038;-61
